Time;durP1;ratioP1;P1;durP2;ratioP2;P2;SDS_P1;SDS_P2;PMS_P1;PMS_P2;Temp;Humidity;BMP_temperature;BMP_pressure;BME280_temperature;BME280_humidity;BME280_pressure;Samples;Min_cycle;Max_cycle;Signal;HPM_P1;HPM_P2
2021/03/10 00:00:33;;;;;;;36.13;22.30;;;1.90;93.90;;;;;;5025720;28;20083;-68
2021/03/10 00:02:59;;;;;;;36.22;21.23;;;1.90;93.80;;;;;;5004205;28;20724;-66
2021/03/10 00:05:25;;;;;;;33.20;21.63;;;1.80;93.70;;;;;;5023242;28;20113;-66
2021/03/10 00:07:50;;;;;;;33.95;21.88;;;1.90;93.60;;;;;;5035903;28;20029;-66
2021/03/10 00:10:16;;;;;;;38.15;21.30;;;1.90;93.60;;;;;;5019561;28;20564;-66
2021/03/10 00:12:43;;;;;;;40.03;22.63;;;1.90;93.50;;;;;;5010262;28;20544;-67
2021/03/10 00:15:11;;;;;;;37.05;22.63;;;1.90;93.50;;;;;;5027344;28;20083;-66
2021/03/10 00:17:37;;;;;;;40.17;22.80;;;1.90;93.40;;;;;;5022371;28;20033;-68
2021/03/10 00:20:05;;;;;;;35.65;21.17;;;1.90;93.50;;;;;;5025839;28;20025;-66
2021/03/10 00:22:31;;;;;;;38.83;22.35;;;2.00;93.40;;;;;;5009132;28;20087;-66
2021/03/10 00:24:57;;;;;;;37.17;21.42;;;2.00;93.30;;;;;;5022621;28;20030;-66
2021/03/10 00:27:23;;;;;;;36.97;23.00;;;2.00;93.20;;;;;;5021945;28;20494;-67
2021/03/10 00:30:00;;;;;;;37.75;23.05;;;2.00;93.20;;;;;;5020684;28;20045;-66
2021/03/10 00:32:26;;;;;;;37.33;22.30;;;2.00;93.10;;;;;;5008633;28;20450;-67
2021/03/10 00:34:53;;;;;;;35.55;22.30;;;2.00;92.90;;;;;;5009076;28;20078;-65
2021/03/10 00:37:19;;;;;;;39.63;21.10;;;2.00;92.80;;;;;;5033286;28;20132;-69
2021/03/10 00:39:46;;;;;;;34.92;22.23;;;2.00;92.40;;;;;;5004476;28;20057;-68
2021/03/10 00:42:12;;;;;;;35.47;22.35;;;2.10;92.60;;;;;;5006575;28;20029;-67
2021/03/10 00:44:38;;;;;;;39.58;22.13;;;2.10;92.50;;;;;;5023034;28;20040;-65
2021/03/10 00:47:05;;;;;;;35.22;22.00;;;2.10;92.30;;;;;;5024219;28;20041;-66
2021/03/10 00:49:30;;;;;;;37.33;22.38;;;2.00;92.20;;;;;;5023883;28;20528;-66
2021/03/10 00:51:56;;;;;;;35.13;21.30;;;2.10;92.00;;;;;;5009442;28;20029;-67
2021/03/10 00:54:22;;;;;;;35.97;22.65;;;2.10;92.00;;;;;;5037565;28;20104;-66
2021/03/10 00:56:48;;;;;;;35.75;22.50;;;2.00;91.90;;;;;;5006552;28;20325;-65
2021/03/10 00:59:14;;;;;;;37.22;22.48;;;2.00;92.20;;;;;;5022812;28;20057;-66
2021/03/10 01:01:39;;;;;;;36.33;22.70;;;2.10;92.10;;;;;;5026244;28;20025;-66
2021/03/10 01:04:05;;;;;;;35.88;22.88;;;2.10;91.70;;;;;;5004860;28;20033;-69
2021/03/10 01:06:31;;;;;;;34.80;22.17;;;2.10;92.10;;;;;;5025355;28;20021;-67
2021/03/10 01:08:56;;;;;;;36.50;22.40;;;2.10;91.70;;;;;;5022160;28;20207;-68
2021/03/10 01:11:22;;;;;;;34.78;21.08;;;2.00;91.60;;;;;;5020801;28;20113;-66
2021/03/10 01:13:48;;;;;;;33.42;21.05;;;2.10;91.50;;;;;;5007133;28;20022;-68
2021/03/10 01:16:14;;;;;;;35.05;21.05;;;2.00;91.80;;;;;;5024419;28;20026;-68
2021/03/10 01:18:40;;;;;;;37.35;22.95;;;2.00;91.50;;;;;;5021971;28;20548;-67
2021/03/10 01:21:06;;;;;;;36.70;22.02;;;2.00;91.50;;;;;;5022073;28;20025;-67
2021/03/10 01:23:31;;;;;;;35.45;22.08;;;2.00;91.60;;;;;;4998800;28;20401;-67
2021/03/10 01:25:57;;;;;;;35.38;22.20;;;2.00;91.70;;;;;;5024763;28;20105;-67
2021/03/10 01:28:23;;;;;;;37.53;22.50;;;2.00;91.10;;;;;;5001882;28;20391;-66
2021/03/10 01:30:49;;;;;;;38.72;22.80;;;2.00;91.20;;;;;;5003900;28;20060;-67
2021/03/10 01:33:15;;;;;;;35.50;21.55;;;2.00;91.20;;;;;;5024756;28;20041;-66
2021/03/10 01:35:40;;;;;;;36.85;22.27;;;2.00;90.90;;;;;;5025195;28;20033;-67
2021/03/10 01:38:06;;;;;;;37.75;23.05;;;2.00;90.60;;;;;;5020184;28;20045;-66
2021/03/10 01:40:33;;;;;;;33.90;21.25;;;2.00;91.20;;;;;;5017827;28;20282;-66
2021/03/10 01:43:04;;;;;;;35.63;21.38;;;1.90;91.40;;;;;;5019844;28;20044;-67
2021/03/10 01:45:30;;;;;;;33.72;21.25;;;1.90;91.10;;;;;;5000116;28;20033;-66
2021/03/10 01:47:57;;;;;;;37.05;22.20;;;1.90;90.70;;;;;;5005652;28;20508;-68
2021/03/10 01:50:25;;;;;;;33.63;21.33;;;1.90;90.90;;;;;;5026731;28;20041;-67
2021/03/10 01:52:53;;;;;;;36.28;22.23;;;1.90;90.70;;;;;;4994586;28;20040;-66
2021/03/10 01:55:19;;;;;;;38.45;21.27;;;1.90;90.40;;;;;;5020554;28;20398;-66
2021/03/10 01:57:45;;;;;;;33.58;21.98;;;1.90;90.60;;;;;;5002955;28;20037;-66
2021/03/10 02:00:11;;;;;;;35.40;22.67;;;1.80;90.60;;;;;;5024160;28;20486;-67
2021/03/10 02:02:37;;;;;;;39.15;22.25;;;1.90;90.50;;;;;;4996311;28;20026;-66
2021/03/10 02:05:03;;;;;;;37.53;22.25;;;1.80;90.40;;;;;;5006706;28;20028;-69
2021/03/10 02:07:59;;;;;;;39.63;22.70;;;1.80;90.40;;;;;;5008292;28;20487;-68
2021/03/10 02:11:06;;;;;;;38.38;22.45;;;1.80;90.70;;;;;;5023043;28;20025;-66
2021/03/10 02:13:48;;;;;;;36.13;22.20;;;1.80;91.00;;;;;;5025059;28;20055;-67
2021/03/10 02:16:29;;;;;;;34.42;21.38;;;1.80;90.60;;;;;;5028002;28;20440;-67
2021/03/10 02:19:17;;;;;;;34.72;22.25;;;1.80;90.60;;;;;;5022009;28;20180;-66
2021/03/10 02:22:03;;;;;;;34.83;22.55;;;1.80;90.90;;;;;;5027392;28;20027;-65
2021/03/10 02:24:51;;;;;;;36.70;22.15;;;1.80;91.30;;;;;;5044313;28;20029;-67
2021/03/10 02:27:41;;;;;;;33.15;22.48;;;1.80;90.90;;;;;;5004324;28;20025;-67
2021/03/10 02:30:11;;;;;;;37.75;22.90;;;1.80;90.50;;;;;;5020476;28;20022;-66
2021/03/10 02:32:39;;;;;;;35.58;21.80;;;1.80;90.70;;;;;;5026339;28;20193;-66
2021/03/10 02:35:08;;;;;;;35.20;22.00;;;1.80;90.70;;;;;;5002376;28;20078;-66
2021/03/10 02:37:37;;;;;;;38.22;22.73;;;1.80;90.40;;;;;;5021148;28;20052;-65
2021/03/10 02:40:05;;;;;;;36.30;23.13;;;1.80;90.80;;;;;;5011634;28;20034;-67
2021/03/10 02:42:32;;;;;;;36.13;22.67;;;1.80;90.90;;;;;;5023447;28;20038;-68
2021/03/10 02:44:59;;;;;;;41.40;23.75;;;1.80;91.30;;;;;;5043392;28;20026;-67
2021/03/10 02:47:25;;;;;;;39.72;22.98;;;1.80;90.80;;;;;;5002316;28;20025;-66
2021/03/10 02:49:53;;;;;;;38.80;24.30;;;1.80;91.10;;;;;;5011360;28;20025;-67
2021/03/10 02:52:20;;;;;;;38.22;23.23;;;1.80;90.90;;;;;;5014353;28;20052;-66
2021/03/10 02:54:47;;;;;;;38.38;23.30;;;1.80;91.30;;;;;;5008370;28;20032;-68
2021/03/10 02:57:13;;;;;;;39.90;22.85;;;1.80;91.50;;;;;;5009980;28;20386;-65
2021/03/10 02:59:39;;;;;;;41.08;23.20;;;1.70;91.50;;;;;;5032403;28;20037;-68
2021/03/10 03:02:05;;;;;;;34.85;22.73;;;1.70;91.70;;;;;;5025610;28;20025;-67
2021/03/10 03:04:30;;;;;;;40.42;24.73;;;1.70;91.90;;;;;;5026686;28;20021;-68
2021/03/10 03:06:56;;;;;;;34.63;22.70;;;1.70;91.90;;;;;;5005690;28;20493;-67
2021/03/10 03:09:22;;;;;;;37.80;22.98;;;1.70;91.90;;;;;;5018248;28;20038;-67
2021/03/10 03:11:48;;;;;;;32.95;21.88;;;1.70;92.10;;;;;;5019269;28;20114;-67
2021/03/10 03:14:17;;;;;;;37.13;22.73;;;1.70;91.30;;;;;;5021695;28;20025;-66
2021/03/10 03:16:43;;;;;;;39.42;22.30;;;1.70;91.10;;;;;;4996566;28;20061;-67
2021/03/10 03:19:09;;;;;;;31.88;21.70;;;1.70;91.10;;;;;;5021003;28;20397;-69
2021/03/10 03:21:35;;;;;;;41.05;24.27;;;1.60;91.30;;;;;;5039676;28;20076;-67
2021/03/10 03:24:02;;;;;;;39.05;24.20;;;1.60;91.50;;;;;;5028421;28;20013;-67
2021/03/10 03:26:28;;;;;;;38.67;23.73;;;1.60;91.50;;;;;;5018860;28;20382;-67
2021/03/10 03:28:56;;;;;;;43.33;25.25;;;1.70;91.40;;;;;;5023140;28;20060;-68
2021/03/10 03:31:23;;;;;;;38.92;23.25;;;1.60;91.50;;;;;;5026834;28;20061;-68
2021/03/10 03:33:50;;;;;;;38.58;23.27;;;1.60;91.40;;;;;;5023888;28;20110;-67
2021/03/10 03:36:16;;;;;;;41.25;24.20;;;1.50;91.60;;;;;;5003048;28;20032;-67
2021/03/10 03:38:42;;;;;;;43.33;24.52;;;1.50;91.60;;;;;;5006747;28;20112;-66
2021/03/10 03:41:08;;;;;;;44.78;24.13;;;1.40;91.60;;;;;;5027771;28;20508;-66
2021/03/10 03:43:34;;;;;;;41.17;23.90;;;1.30;91.90;;;;;;4992615;28;20460;-67
2021/03/10 03:46:00;;;;;;;41.45;23.98;;;1.20;91.90;;;;;;5019284;28;20029;-68
2021/03/10 03:48:25;;;;;;;42.72;25.38;;;1.10;92.00;;;;;;5023579;28;20025;-66
2021/03/10 03:50:51;;;;;;;44.65;25.77;;;1.00;92.20;;;;;;5004492;28;20088;-66
2021/03/10 03:53:17;;;;;;;45.85;26.55;;;0.90;92.40;;;;;;5019531;28;20460;-67
2021/03/10 03:55:43;;;;;;;41.05;24.63;;;0.80;92.50;;;;;;5000992;28;20025;-67
2021/03/10 03:58:09;;;;;;;46.70;26.02;;;0.70;92.60;;;;;;5007614;28;20319;-67
2021/03/10 04:00:35;;;;;;;46.47;26.90;;;0.60;92.70;;;;;;5041011;28;20068;-67
2021/03/10 04:03:01;;;;;;;49.85;27.85;;;0.50;93.00;;;;;;5022083;28;20026;-67
2021/03/10 04:05:27;;;;;;;49.85;28.30;;;0.40;93.20;;;;;;5024901;28;20029;-66
2021/03/10 04:07:54;;;;;;;54.45;28.77;;;0.30;93.30;;;;;;5025964;28;20064;-67
2021/03/10 04:10:29;;;;;;;56.88;28.83;;;0.20;93.50;;;;;;5009027;28;20048;-67
2021/03/10 04:12:55;;;;;;;53.83;28.25;;;0.20;93.80;;;;;;5007020;28;20055;-69
2021/03/10 04:15:21;;;;;;;54.92;28.25;;;0.00;93.80;;;;;;5006129;28;20030;-67
2021/03/10 04:17:48;;;;;;;61.20;29.38;;;0.00;94.10;;;;;;5017057;28;20057;-66
2021/03/10 04:20:17;;;;;;;56.85;28.48;;;-3276.70;94.40;;;;;;5041054;28;20517;-68
2021/03/10 04:22:43;;;;;;;56.63;30.05;;;-3276.60;94.50;;;;;;5037516;28;20526;-68
2021/03/10 04:25:10;;;;;;;66.25;32.45;;;-3276.40;94.50;;;;;;5026794;28;20076;-67
2021/03/10 04:27:36;;;;;;;65.07;31.02;;;-3276.40;94.80;;;;;;5022430;28;20549;-67
2021/03/10 04:30:04;;;;;;;73.20;32.17;;;-3276.40;94.90;;;;;;4984959;28;20293;-67
2021/03/10 04:32:30;;;;;;;73.13;33.47;;;-3276.30;94.90;;;;;;5025365;28;20306;-67
2021/03/10 04:34:56;;;;;;;70.68;31.40;;;-3276.20;94.90;;;;;;5017790;28;20353;-67
2021/03/10 04:37:21;;;;;;;77.45;32.95;;;-3276.20;95.10;;;;;;5001982;28;20034;-69
2021/03/10 04:39:47;;;;;;;77.55;33.45;;;-3276.10;95.10;;;;;;5028248;28;20461;-66
2021/03/10 04:42:13;;;;;;;98.80;36.58;;;-3276.10;95.30;;;;;;5020854;28;20018;-67
2021/03/10 04:44:38;;;;;;;121.72;38.83;;;-3276.10;95.50;;;;;;5001293;28;20064;-67
2021/03/10 04:47:04;;;;;;;114.25;38.58;;;-3276.20;95.60;;;;;;5044783;28;20025;-68
2021/03/10 04:49:30;;;;;;;111.05;37.75;;;-3276.10;95.70;;;;;;5023078;28;20044;-68
2021/03/10 04:51:56;;;;;;;124.72;39.30;;;-3276.10;95.70;;;;;;5016065;28;20536;-67
2021/03/10 04:54:22;;;;;;;128.05;38.85;;;-3276.10;95.80;;;;;;5024824;28;20037;-66
2021/03/10 04:56:47;;;;;;;133.90;42.00;;;-3276.10;95.80;;;;;;5017807;28;20454;-67
2021/03/10 04:59:13;;;;;;;137.98;40.08;;;-3276.10;95.90;;;;;;5021300;28;20155;-66
2021/03/10 05:01:39;;;;;;;142.25;40.05;;;-3276.00;95.80;;;;;;5025541;28;20026;-66
2021/03/10 05:04:04;;;;;;;156.20;41.92;;;-3276.00;95.90;;;;;;5027450;28;20033;-67
2021/03/10 05:06:30;;;;;;;159.98;41.05;;;-3276.10;96.00;;;;;;5016374;28;20379;-66
2021/03/10 05:08:56;;;;;;;172.38;44.17;;;-3276.10;96.00;;;;;;4997232;28;20218;-66
2021/03/10 05:11:22;;;;;;;156.98;42.78;;;-3276.10;96.00;;;;;;5018322;28;20104;-68
2021/03/10 05:13:48;;;;;;;176.05;43.45;;;-3276.10;96.10;;;;;;5025362;28;20395;-66
2021/03/10 05:16:14;;;;;;;169.35;43.20;;;-3276.10;96.00;;;;;;5006199;28;20482;-67
2021/03/10 05:18:40;;;;;;;173.77;45.10;;;-3276.00;96.00;;;;;;5002997;28;20069;-68
2021/03/10 05:21:06;;;;;;;179.48;43.95;;;-3276.00;96.00;;;;;;5022578;28;20060;-67
2021/03/10 05:23:32;;;;;;;183.65;45.80;;;-3276.00;96.10;;;;;;5005617;28;20113;-67
2021/03/10 05:25:57;;;;;;;176.02;45.53;;;-3276.00;96.10;;;;;;4991553;28;20029;-67
2021/03/10 05:28:24;;;;;;;177.30;46.60;;;-3276.10;96.20;;;;;;5022740;28;20033;-66
2021/03/10 05:30:49;;;;;;;176.98;46.40;;;-3276.10;96.20;;;;;;5005266;28;20030;-67
2021/03/10 05:33:15;;;;;;;190.65;48.17;;;-3276.20;96.20;;;;;;4990739;28;20036;-67
2021/03/10 05:35:40;;;;;;;217.93;51.13;;;-3276.20;96.10;;;;;;5024552;28;20037;-67
2021/03/10 05:38:06;;;;;;;191.63;46.95;;;-3276.30;96.10;;;;;;5025897;28;20033;-67
2021/03/10 05:40:33;;;;;;;182.73;45.95;;;-3276.30;96.00;;;;;;5019010;28;20037;-69
2021/03/10 05:42:59;;;;;;;171.40;46.10;;;-3276.30;95.90;;;;;;5014241;28;20420;-66
2021/03/10 05:45:25;;;;;;;177.32;46.67;;;-3276.30;95.80;;;;;;5023964;28;20026;-67
2021/03/10 05:47:52;;;;;;;155.38;42.90;;;-3276.30;95.70;;;;;;4996326;28;20059;-66
2021/03/10 05:50:17;;;;;;;153.45;43.40;;;-3276.30;95.50;;;;;;5030711;28;20030;-67
2021/03/10 05:52:45;;;;;;;141.30;42.85;;;-3276.30;95.50;;;;;;5018889;28;20021;-66
2021/03/10 05:55:11;;;;;;;155.55;44.35;;;-3276.30;95.50;;;;;;5001535;28;20064;-67
2021/03/10 05:57:41;;;;;;;133.43;42.15;;;-3276.30;95.40;;;;;;5002078;28;20025;-69
2021/03/10 06:00:10;;;;;;;138.60;41.30;;;-3276.30;95.40;;;;;;5002117;28;20029;-68
2021/03/10 06:02:36;;;;;;;133.80;42.15;;;-3276.30;95.40;;;;;;5029848;28;20029;-66
2021/03/10 06:05:02;;;;;;;137.15;43.65;;;-3276.40;95.50;;;;;;5001709;28;20030;-67
2021/03/10 06:07:30;;;;;;;129.00;41.95;;;-3276.40;95.40;;;;;;5011778;28;20237;-68
2021/03/10 06:10:00;;;;;;;132.98;41.35;;;-3276.40;95.40;;;;;;5006547;28;20060;-67
2021/03/10 06:12:43;;;;;;;127.82;41.70;;;-3276.50;95.40;;;;;;5024508;28;20497;-67
2021/03/10 06:15:11;;;;;;;114.97;39.70;;;-3276.60;95.40;;;;;;5023857;28;20461;-67
2021/03/10 06:17:41;;;;;;;121.60;40.42;;;-3276.70;95.40;;;;;;5027457;28;20493;-67
2021/03/10 06:20:07;;;;;;;110.53;39.83;;;0.00;95.20;;;;;;5007171;28;20405;-68
2021/03/10 06:22:34;;;;;;;91.22;38.50;;;0.00;95.00;;;;;;5023945;28;20033;-67
2021/03/10 06:25:01;;;;;;;87.70;36.78;;;0.10;94.90;;;;;;5027154;28;20025;-67
2021/03/10 06:27:26;;;;;;;72.90;34.50;;;0.10;94.50;;;;;;4988519;28;20057;-66
2021/03/10 06:29:59;;;;;;;72.55;33.03;;;0.20;94.20;;;;;;5032032;28;20517;-68
2021/03/10 06:32:26;;;;;;;61.70;33.63;;;0.30;93.90;;;;;;5025536;28;20478;-70
2021/03/10 06:34:52;;;;;;;59.28;30.85;;;0.30;93.70;;;;;;5010585;28;20040;-67
2021/03/10 06:37:25;;;;;;;60.67;31.85;;;0.40;93.40;;;;;;5024561;28;20029;-66
2021/03/10 06:39:51;;;;;;;56.88;30.33;;;0.50;93.50;;;;;;5026394;28;20128;-67
2021/03/10 06:42:18;;;;;;;50.40;27.88;;;0.50;93.20;;;;;;5007345;28;20116;-67
2021/03/10 06:44:52;;;;;;;42.78;25.58;;;0.60;93.00;;;;;;5011739;28;20409;-66
2021/03/10 06:47:19;;;;;;;42.70;24.88;;;0.60;92.60;;;;;;5003471;28;20112;-66
2021/03/10 06:49:50;;;;;;;45.03;26.23;;;0.70;92.50;;;;;;5032067;28;20140;-67
2021/03/10 06:52:15;;;;;;;46.17;25.75;;;0.70;92.20;;;;;;5021396;28;20025;-68
2021/03/10 06:54:57;;;;;;;42.20;24.52;;;0.70;92.20;;;;;;5002980;28;20109;-68
2021/03/10 06:57:24;;;;;;;42.15;24.63;;;0.70;92.10;;;;;;5016643;28;20057;-67
2021/03/10 06:59:51;;;;;;;41.00;25.35;;;0.80;91.90;;;;;;5040295;28;20034;-67
2021/03/10 07:02:22;;;;;;;43.83;24.15;;;0.80;92.00;;;;;;4998734;28;20029;-66
2021/03/10 07:04:56;;;;;;;39.80;24.10;;;0.80;91.80;;;;;;5005557;28;20425;-67
2021/03/10 07:07:26;;;;;;;35.30;23.02;;;0.90;91.70;;;;;;5000878;28;20062;-68
2021/03/10 07:09:53;;;;;;;40.00;23.52;;;0.90;91.60;;;;;;5008662;28;20030;-67
2021/03/10 07:12:21;;;;;;;39.80;22.85;;;1.00;91.40;;;;;;5005506;28;20052;-67
2021/03/10 07:14:48;;;;;;;41.80;23.67;;;1.00;91.30;;;;;;5025700;28;20025;-68
2021/03/10 07:17:16;;;;;;;40.22;23.77;;;1.00;91.20;;;;;;5022702;28;20406;-67
2021/03/10 07:19:42;;;;;;;36.92;23.38;;;1.10;91.00;;;;;;5024139;28;20069;-67
2021/03/10 07:22:23;;;;;;;38.10;22.67;;;1.10;91.00;;;;;;5025792;28;20030;-67
2021/03/10 07:24:55;;;;;;;34.47;21.33;;;1.10;91.10;;;;;;5017502;28;20379;-67
2021/03/10 07:27:23;;;;;;;38.47;22.58;;;1.10;91.00;;;;;;5023091;28;20032;-66
2021/03/10 07:29:57;;;;;;;33.88;21.25;;;1.20;91.00;;;;;;5021380;28;20037;-66
2021/03/10 07:32:24;;;;;;;35.63;22.98;;;1.30;91.10;;;;;;5028384;28;20486;-67
2021/03/10 07:35:00;;;;;;;36.08;22.35;;;1.30;91.00;;;;;;5017242;28;20048;-67
2021/03/10 07:37:26;;;;;;;32.88;21.40;;;1.30;90.70;;;;;;5008747;28;20313;-67
2021/03/10 07:39:52;;;;;;;38.95;22.65;;;1.40;90.90;;;;;;5016923;28;20410;-67
2021/03/10 07:42:18;;;;;;;38.15;22.65;;;1.50;90.80;;;;;;5002453;28;20577;-67
2021/03/10 07:44:55;;;;;;;34.03;22.45;;;1.50;90.70;;;;;;5008046;28;20032;-67
2021/03/10 07:47:21;;;;;;;37.03;23.05;;;1.50;90.30;;;;;;5004893;28;20033;-68
2021/03/10 07:49:57;;;;;;;35.95;22.30;;;1.60;90.90;;;;;;5006414;28;20029;-68
2021/03/10 07:52:23;;;;;;;34.08;20.67;;;1.60;90.60;;;;;;5010362;28;20505;-67
2021/03/10 07:54:58;;;;;;;35.70;21.88;;;1.70;90.60;;;;;;5000683;28;20033;-67
2021/03/10 07:57:24;;;;;;;39.22;22.83;;;1.60;90.50;;;;;;4994328;28;20116;-66
2021/03/10 08:00:06;;;;;;;37.78;22.52;;;1.70;91.00;;;;;;5010054;28;20156;-69
2021/03/10 08:02:47;;;;;;;39.78;23.20;;;1.80;91.10;;;;;;5017345;28;20048;-68
2021/03/10 08:05:24;;;;;;;40.13;23.25;;;1.90;90.80;;;;;;5022284;28;20025;-67
2021/03/10 08:08:14;;;;;;;36.33;21.92;;;2.00;90.80;;;;;;5026205;28;20071;-67
2021/03/10 08:10:41;;;;;;;40.90;22.05;;;2.10;90.60;;;;;;5026831;28;20025;-67
2021/03/10 08:13:17;;;;;;;38.15;22.88;;;2.20;90.80;;;;;;5020541;28;20029;-67
2021/03/10 08:15:43;;;;;;;36.72;22.35;;;2.30;90.60;;;;;;4999159;28;20487;-68
2021/03/10 08:18:08;;;;;;;40.28;23.48;;;2.40;90.70;;;;;;5023307;28;20064;-68
2021/03/10 08:20:35;;;;;;;38.50;22.25;;;2.50;90.60;;;;;;5024873;28;20022;-67
2021/03/10 08:23:06;;;;;;;35.72;21.55;;;2.70;90.50;;;;;;4997195;28;20103;-67
2021/03/10 08:25:34;;;;;;;34.67;21.90;;;2.60;90.30;;;;;;5015179;28;20079;-68
2021/03/10 08:28:10;;;;;;;35.40;22.30;;;2.70;90.30;;;;;;5017057;28;20033;-67
2021/03/10 08:30:36;;;;;;;35.60;22.23;;;2.80;90.40;;;;;;5015169;28;20026;-69
2021/03/10 08:33:06;;;;;;;36.83;21.95;;;2.80;89.90;;;;;;5014911;28;20091;-68
2021/03/10 08:35:51;;;;;;;38.47;20.40;;;2.80;89.70;;;;;;5023163;28;20079;-68
2021/03/10 08:38:17;;;;;;;36.70;22.58;;;3.00;89.50;;;;;;5018401;28;20025;-67
2021/03/10 08:40:43;;;;;;;35.10;22.45;;;3.00;90.00;;;;;;5023678;28;20025;-68
2021/03/10 08:43:19;;;;;;;39.80;22.50;;;3.00;89.90;;;;;;5019491;28;20030;-68
2021/03/10 08:45:45;;;;;;;34.92;20.88;;;3.20;90.50;;;;;;4999820;28;20581;-68
2021/03/10 08:48:13;;;;;;;35.15;21.90;;;3.20;89.20;;;;;;5015660;28;20026;-67
2021/03/10 08:50:42;;;;;;;34.20;20.42;;;3.20;89.30;;;;;;5010723;28;20036;-68
2021/03/10 08:53:09;;;;;;;32.88;21.48;;;3.40;89.90;;;;;;5017626;28;20038;-67
2021/03/10 08:55:36;;;;;;;36.00;22.98;;;3.40;89.00;;;;;;5014356;28;20029;-68
2021/03/10 08:58:12;;;;;;;36.47;21.35;;;3.30;89.40;;;;;;5018807;28;20037;-68
2021/03/10 09:00:40;;;;;;;38.53;22.42;;;3.20;89.40;;;;;;5026796;28;20068;-68
2021/03/10 09:03:13;;;;;;;36.72;22.02;;;3.30;89.90;;;;;;5018371;28;20091;-67
2021/03/10 09:05:40;;;;;;;33.60;19.98;;;3.50;89.90;;;;;;5020578;28;20540;-67
2021/03/10 09:08:11;;;;;;;34.55;21.45;;;3.50;89.70;;;;;;5013043;28;20251;-68
2021/03/10 09:10:38;;;;;;;35.80;21.05;;;3.50;89.90;;;;;;5024995;28;20061;-67
2021/03/10 09:13:04;;;;;;;36.20;21.83;;;3.60;90.10;;;;;;5020175;28;20037;-67
2021/03/10 09:15:32;;;;;;;37.13;22.30;;;3.40;90.00;;;;;;5012792;28;20040;-68
2021/03/10 09:18:02;;;;;;;33.30;21.65;;;3.50;90.30;;;;;;5017150;28;20112;-69
2021/03/10 09:20:36;;;;;;;32.35;22.02;;;3.60;89.90;;;;;;5015645;28;20447;-68
2021/03/10 09:23:02;;;;;;;38.60;21.90;;;3.70;89.80;;;;;;5015309;28;20036;-68
2021/03/10 09:25:30;;;;;;;34.92;21.42;;;3.70;89.50;;;;;;5016570;28;20171;-68
2021/03/10 09:28:10;;;;;;;32.35;19.70;;;3.80;89.80;;;;;;5022831;28;20116;-68
2021/03/10 09:30:43;;;;;;;31.65;19.40;;;3.70;89.30;;;;;;5017557;28;20079;-68
2021/03/10 09:33:22;;;;;;;30.50;19.15;;;3.60;89.20;;;;;;5017300;28;20486;-67
2021/03/10 09:35:55;;;;;;;35.28;19.88;;;3.50;89.40;;;;;;5014900;28;20596;-68
2021/03/10 09:38:21;;;;;;;30.10;19.05;;;3.50;89.40;;;;;;5015742;28;20061;-68
2021/03/10 09:40:53;;;;;;;28.77;18.70;;;3.70;88.90;;;;;;5017796;28;20356;-67
2021/03/10 09:43:25;;;;;;;31.67;18.75;;;3.60;88.90;;;;;;5017739;28;20061;-67
2021/03/10 09:45:55;;;;;;;31.30;18.17;;;3.80;89.00;;;;;;5011176;28;20159;-67
2021/03/10 09:48:32;;;;;;;28.85;18.92;;;3.70;88.70;;;;;;5014992;28;20034;-67
2021/03/10 09:51:08;;;;;;;28.63;18.10;;;3.90;88.90;;;;;;5014485;28;20084;-70
2021/03/10 09:53:38;;;;;;;32.75;19.90;;;4.00;88.60;;;;;;5019768;28;20021;-66
2021/03/10 09:56:09;;;;;;;28.00;18.83;;;3.80;88.60;;;;;;5012913;28;20569;-69
2021/03/10 09:58:56;;;;;;;31.83;19.45;;;4.00;89.10;;;;;;5016714;28;20026;-68
2021/03/10 10:01:23;;;;;;;30.42;18.95;;;4.10;88.70;;;;;;5021797;28;21045;-67
2021/03/10 10:03:50;;;;;;;31.08;17.83;;;4.10;88.20;;;;;;5021889;28;20030;-69
2021/03/10 10:06:17;;;;;;;28.80;17.80;;;4.20;88.60;;;;;;5021572;28;20526;-69
2021/03/10 10:08:45;;;;;;;26.63;17.90;;;4.30;87.80;;;;;;5017206;28;20046;-67
2021/03/10 10:11:12;;;;;;;30.10;19.58;;;4.30;87.40;;;;;;5017008;28;20053;-67
2021/03/10 10:13:49;;;;;;;27.33;18.00;;;4.40;87.60;;;;;;5011081;28;20296;-68
2021/03/10 10:16:15;;;;;;;30.30;19.17;;;4.30;87.30;;;;;;5018320;28;20029;-67
2021/03/10 10:18:42;;;;;;;29.92;18.40;;;4.40;86.60;;;;;;5017755;28;20068;-67
2021/03/10 10:21:09;;;;;;;28.85;18.50;;;4.40;86.80;;;;;;5019931;28;20065;-67
2021/03/10 10:23:35;;;;;;;27.98;17.20;;;4.30;86.40;;;;;;5019729;28;20475;-68
2021/03/10 10:26:01;;;;;;;29.13;17.60;;;4.10;87.00;;;;;;5018562;28;20025;-68
2021/03/10 10:28:27;;;;;;;30.55;18.77;;;4.20;87.40;;;;;;5010850;28;20117;-67
2021/03/10 10:30:53;;;;;;;27.83;18.15;;;4.60;87.70;;;;;;5017832;28;20718;-67
2021/03/10 10:33:19;;;;;;;29.85;18.65;;;4.50;86.90;;;;;;5019377;28;20442;-68
2021/03/10 10:35:44;;;;;;;29.80;18.80;;;4.20;86.30;;;;;;5021761;28;20033;-67
2021/03/10 10:38:10;;;;;;;30.98;20.00;;;4.60;87.50;;;;;;5024875;28;20022;-69
2021/03/10 10:40:36;;;;;;;29.77;19.67;;;4.70;86.00;;;;;;5017337;28;20057;-69
2021/03/10 10:43:02;;;;;;;30.73;19.75;;;4.50;85.10;;;;;;5013188;28;20026;-67
2021/03/10 10:45:28;;;;;;;30.13;19.17;;;4.70;85.90;;;;;;5026961;28;20035;-67
2021/03/10 10:47:53;;;;;;;29.17;18.90;;;4.60;84.50;;;;;;5017314;28;20041;-67
2021/03/10 10:50:19;;;;;;;29.98;17.98;;;4.80;84.10;;;;;;5022086;28;20037;-67
2021/03/10 10:52:47;;;;;;;30.60;19.20;;;4.70;84.40;;;;;;5026863;28;20060;-68
2021/03/10 10:55:15;;;;;;;29.17;17.02;;;4.80;83.50;;;;;;5018267;28;20033;-67
2021/03/10 10:57:41;;;;;;;29.65;17.90;;;5.00;83.20;;;;;;5012039;28;20030;-66
2021/03/10 11:00:08;;;;;;;28.10;17.98;;;5.20;83.60;;;;;;5023380;28;20497;-68
2021/03/10 11:02:34;;;;;;;27.42;18.67;;;5.70;83.60;;;;;;5015024;28;20068;-68
2021/03/10 11:04:59;;;;;;;28.75;18.02;;;5.60;81.70;;;;;;5025773;28;20421;-67
2021/03/10 11:07:25;;;;;;;28.90;17.67;;;5.60;82.60;;;;;;5011709;28;20092;-67
2021/03/10 11:09:51;;;;;;;25.95;16.10;;;5.70;81.40;;;;;;5024990;28;20112;-68
2021/03/10 11:12:16;;;;;;;26.05;17.55;;;5.60;81.20;;;;;;5027095;28;20164;-68
2021/03/10 11:14:42;;;;;;;27.30;17.75;;;5.80;80.80;;;;;;5012606;28;20029;-68
2021/03/10 11:17:08;;;;;;;24.80;16.35;;;5.60;80.00;;;;;;5019580;28;20342;-67
2021/03/10 11:19:34;;;;;;;28.10;17.27;;;5.60;81.20;;;;;;5024834;28;20032;-68
2021/03/10 11:22:02;;;;;;;30.63;18.13;;;5.90;80.10;;;;;;5017488;28;20054;-67
2021/03/10 11:24:27;;;;;;;26.63;17.40;;;6.00;79.90;;;;;;5023584;28;20032;-68
2021/03/10 11:26:53;;;;;;;29.02;18.13;;;6.20;79.70;;;;;;5021211;28;20026;-67
2021/03/10 11:29:20;;;;;;;22.92;16.25;;;6.00;79.10;;;;;;5012224;28;20512;-68
2021/03/10 11:31:45;;;;;;;25.95;16.95;;;6.10;77.70;;;;;;5029416;28;20045;-70
2021/03/10 11:34:12;;;;;;;27.08;17.48;;;6.10;77.50;;;;;;5014530;28;20410;-66
2021/03/10 11:36:38;;;;;;;24.92;16.17;;;6.20;78.90;;;;;;5018653;28;20494;-69
2021/03/10 11:39:03;;;;;;;25.75;16.30;;;6.50;78.20;;;;;;5025477;28;20040;-69
2021/03/10 11:41:29;;;;;;;24.80;16.58;;;6.60;76.40;;;;;;5029123;28;20021;-67
2021/03/10 11:43:55;;;;;;;25.50;16.55;;;6.70;76.80;;;;;;5009413;28;20509;-68
2021/03/10 11:46:20;;;;;;;26.25;16.52;;;7.30;76.50;;;;;;5019665;28;20448;-70
2021/03/10 11:48:46;;;;;;;25.58;16.50;;;7.30;75.00;;;;;;5018803;28;20037;-67
2021/03/10 11:51:11;;;;;;;24.42;16.58;;;7.00;74.60;;;;;;5026519;28;20025;-68
2021/03/10 11:53:37;;;;;;;22.25;15.27;;;7.10;73.30;;;;;;5027832;28;20029;-68
2021/03/10 11:56:03;;;;;;;24.33;16.23;;;7.00;71.90;;;;;;5010141;28;20026;-73
2021/03/10 11:58:28;;;;;;;23.92;15.68;;;7.40;73.10;;;;;;5023034;28;20395;-67
2021/03/10 12:00:54;;;;;;;22.95;15.10;;;7.20;72.00;;;;;;5016640;28;20028;-68
2021/03/10 12:03:20;;;;;;;23.65;14.93;;;6.90;70.40;;;;;;5023419;28;20083;-69
2021/03/10 12:05:46;;;;;;;23.10;15.90;;;6.80;72.20;;;;;;5014188;28;20110;-68
2021/03/10 12:08:12;;;;;;;20.27;14.60;;;6.80;71.10;;;;;;5024453;28;20030;-67
2021/03/10 12:10:40;;;;;;;23.48;14.52;;;7.30;72.10;;;;;;5015120;28;20060;-67
2021/03/10 12:13:06;;;;;;;23.23;15.25;;;7.30;69.90;;;;;;5024471;28;20414;-66
2021/03/10 12:15:32;;;;;;;20.52;14.25;;;7.70;71.00;;;;;;5011545;28;20120;-67
2021/03/10 12:17:58;;;;;;;23.27;15.77;;;7.90;69.00;;;;;;5015522;28;20021;-68
2021/03/10 12:20:23;;;;;;;20.70;14.07;;;7.70;66.50;;;;;;5026064;28;20116;-68
2021/03/10 12:22:49;;;;;;;21.75;14.57;;;7.60;68.90;;;;;;5028208;28;20030;-69
2021/03/10 12:25:15;;;;;;;20.80;15.02;;;7.80;68.00;;;;;;5025111;28;20111;-68
2021/03/10 12:27:40;;;;;;;20.05;14.07;;;7.70;69.10;;;;;;5016733;28;20069;-68
2021/03/10 12:30:06;;;;;;;21.92;14.52;;;8.00;68.40;;;;;;5004740;28;20021;-68
2021/03/10 12:32:35;;;;;;;20.10;13.98;;;8.30;67.20;;;;;;5014603;28;20041;-67